Time;durP1;ratioP1;P1;durP2;ratioP2;P2;SDS_P1;SDS_P2;PMS_P1;PMS_P2;Temp;Humidity;BMP_temperature;BMP_pressure;BME280_temperature;BME280_humidity;BME280_pressure;Samples;Min_cycle;Max_cycle;Signal;HPM_P1;HPM_P2
2023/10/20 00:02:04;;;;;;;10.27;6.72;;;;;;;9.66;81.52;99417.16;7390745;19;20015;-66
2023/10/20 00:04:31;;;;;;;11.02;7.30;;;;;;;9.68;81.50;99424.94;7390019;19;20010;-67
2023/10/20 00:06:59;;;;;;;9.65;6.70;;;;;;;9.71;80.96;99438.72;7388659;19;20046;-68
2023/10/20 00:09:28;;;;;;;9.82;6.90;;;;;;;9.75;81.02;99439.28;7385033;19;20483;-68
2023/10/20 00:11:58;;;;;;;10.98;7.13;;;;;;;9.71;80.84;99422.84;7390186;19;20702;-68
2023/10/20 00:14:26;;;;;;;10.88;7.25;;;;;;;9.63;81.45;99419.25;7390178;19;20015;-68
2023/10/20 00:16:53;;;;;;;11.45;7.55;;;;;;;9.60;81.32;99420.34;7394595;19;20369;-68
2023/10/20 00:19:21;;;;;;;11.38;7.40;;;;;;;9.62;81.59;99428.16;7391951;19;20422;-64
2023/10/20 00:21:51;;;;;;;10.13;7.30;;;;;;;9.65;81.26;99433.97;7392358;19;20049;-64
2023/10/20 00:24:19;;;;;;;11.57;7.85;;;;;;;9.59;81.15;99433.72;7397223;19;20038;-65
2023/10/20 00:26:47;;;;;;;11.15;7.53;;;;;;;9.61;81.63;99429.13;7396795;19;20042;-64
2023/10/20 00:29:14;;;;;;;11.18;7.38;;;;;;;9.65;81.31;99430.50;7393394;19;20025;-63
2023/10/20 00:31:42;;;;;;;11.25;7.53;;;;;;;9.67;81.08;99439.97;7396865;19;20086;-64
2023/10/20 00:34:09;;;;;;;11.05;7.38;;;;;;;9.67;81.06;99444.44;7396439;19;20021;-62
2023/10/20 00:36:38;;;;;;;10.18;7.35;;;;;;;9.67;81.23;99434.69;7396493;19;20054;-62
2023/10/20 00:39:06;;;;;;;11.40;6.93;;;;;;;9.70;80.94;99428.28;7391609;19;20015;-60
2023/10/20 00:41:35;;;;;;;11.27;7.60;;;;;;;9.67;80.67;99434.69;7394239;19;20022;-60
2023/10/20 00:44:03;;;;;;;10.40;7.07;;;;;;;9.65;80.82;99428.69;7394693;19;20501;-60
2023/10/20 00:46:31;;;;;;;10.80;6.80;;;;;;;9.67;81.12;99410.91;7396092;19;20019;-61
2023/10/20 00:48:59;;;;;;;11.55;7.30;;;;;;;9.70;80.98;99407.16;7394123;19;20014;-61
2023/10/20 00:51:27;;;;;;;11.15;7.25;;;;;;;9.66;81.07;99408.41;7396013;19;20014;-61
2023/10/20 00:53:58;;;;;;;10.20;6.88;;;;;;;9.61;80.85;99394.75;7395876;19;20081;-61
2023/10/20 00:56:28;;;;;;;11.10;7.07;;;;;;;9.58;81.17;99387.09;7396223;19;20026;-61
2023/10/20 00:58:57;;;;;;;11.13;7.40;;;;;;;9.58;80.92;99390.59;7393524;19;20086;-61
2023/10/20 01:01:25;;;;;;;10.93;6.60;;;;;;;9.60;81.03;99379.88;7394640;19;20018;-61
2023/10/20 01:03:52;;;;;;;9.88;6.90;;;;;;;9.59;80.77;99375.56;7393884;19;20014;-61
2023/10/20 01:06:20;;;;;;;10.38;6.93;;;;;;;9.58;80.68;99369.47;7395887;19;20014;-61
2023/10/20 01:08:54;;;;;;;10.80;7.00;;;;;;;9.61;80.81;99369.16;7394309;19;20019;-61
2023/10/20 01:11:22;;;;;;;;;;;;;;;9.41;80.86;99360.41;7396047;19;20023;-60
2023/10/20 01:13:50;;;;;;;9.75;6.60;;;;;;;9.39;81.65;99351.81;7395467;19;19926;-65
2023/10/20 01:16:20;;;;;;;10.48;6.80;;;;;;;9.46;81.39;99358.22;7395232;19;20093;-66
2023/10/20 01:18:49;;;;;;;10.43;6.85;;;;;;;9.48;81.21;99356.25;7394247;19;20527;-66
2023/10/20 01:21:17;;;;;;;10.65;7.05;;;;;;;9.52;80.71;99355.00;7392542;19;20023;-66
2023/10/20 01:23:44;;;;;;;10.40;6.90;;;;;;;9.53;80.82;99345.25;7395315;19;20039;-67
2023/10/20 01:26:12;;;;;;;11.48;6.97;;;;;;;9.54;80.38;99352.22;7394443;19;20019;-66
2023/10/20 01:28:40;;;;;;;10.43;6.78;;;;;;;9.53;80.62;99353.19;7391686;19;20011;-66
2023/10/20 01:31:07;;;;;;;10.00;7.05;;;;;;;9.52;80.32;99360.28;7393364;19;20018;-64
2023/10/20 01:33:35;;;;;;;11.88;6.95;;;;;;;9.51;80.57;99350.69;7394854;19;20028;-63
2023/10/20 01:36:03;;;;;;;9.90;6.40;;;;;;;9.57;80.24;99345.81;7394308;19;20027;-63
2023/10/20 01:38:31;;;;;;;9.90;6.00;;;;;;;9.60;80.08;99349.00;7393772;19;20090;-62
2023/10/20 01:40:58;;;;;;;9.65;6.07;;;;;;;9.59;80.38;99343.88;7392701;19;20348;-63
2023/10/20 01:43:26;;;;;;;9.73;5.57;;;;;;;9.60;80.25;99340.25;7394439;19;20035;-63
2023/10/20 01:45:53;;;;;;;9.15;5.68;;;;;;;9.65;79.93;99343.28;7394402;19;20043;-63
2023/10/20 01:48:21;;;;;;;8.98;5.43;;;;;;;9.60;80.01;99324.38;7392263;19;20023;-63
2023/10/20 01:50:49;;;;;;;7.13;5.05;;;;;;;9.63;79.97;99324.09;7392929;19;20026;-66
2023/10/20 01:53:16;;;;;;;7.78;4.85;;;;;;;9.61;80.06;99329.50;7393684;19;20041;-67
2023/10/20 01:55:49;;;;;;;7.00;4.53;;;;;;;9.60;79.88;99317.28;7393934;19;20041;-68
2023/10/20 01:58:18;;;;;;;6.65;4.28;;;;;;;9.53;79.93;99318.81;7393151;19;20014;-67
2023/10/20 02:00:50;;;;;;;7.18;4.30;;;;;;;9.62;79.52;99309.22;7391738;19;20025;-67
2023/10/20 02:03:19;;;;;;;6.40;4.07;;;;;;;9.62;79.62;99306.59;7394113;19;20086;-67
2023/10/20 02:05:47;;;;;;;6.03;4.05;;;;;;;9.60;79.76;99293.50;7393662;19;20015;-67
2023/10/20 02:08:15;;;;;;;5.57;3.67;;;;;;;9.62;79.48;99301.31;7392725;19;20025;-67
2023/10/20 02:10:44;;;;;;;5.82;3.50;;;;;;;9.61;79.62;99295.16;7391976;19;20514;-67
2023/10/20 02:13:12;;;;;;;5.63;3.70;;;;;;;9.59;79.33;99289.19;7393566;19;20024;-68
2023/10/20 02:15:45;;;;;;;5.55;3.85;;;;;;;9.63;79.35;99282.66;7393446;19;20019;-68
2023/10/20 02:18:13;;;;;;;4.50;3.22;;;;;;;9.58;79.54;99273.47;7392862;19;20022;-68
2023/10/20 02:20:41;;;;;;;4.97;3.47;;;;;;;9.65;79.42;99271.91;7391354;19;20025;-68
2023/10/20 02:23:09;;;;;;;5.13;3.50;;;;;;;9.60;79.50;99269.72;7393225;19;20086;-67
2023/10/20 02:25:37;;;;;;;5.93;3.45;;;;;;;9.60;79.64;99261.78;7392580;19;20070;-65
2023/10/20 02:28:05;;;;;;;5.95;3.67;;;;;;;9.57;79.59;99256.78;7392618;19;20023;-66
2023/10/20 02:30:32;;;;;;;4.88;3.30;;;;;;;9.55;79.76;99252.63;7391633;19;20018;-66
2023/10/20 02:33:02;;;;;;;5.35;3.17;;;;;;;9.56;79.67;99272.78;7392478;19;20018;-67
2023/10/20 02:35:29;;;;;;;4.15;2.97;;;;;;;9.59;79.75;99277.78;7391963;19;20438;-67
2023/10/20 02:37:57;;;;;;;3.80;2.63;;;;;;;9.55;79.40;99281.69;7390703;19;20037;-65
2023/10/20 02:40:25;;;;;;;3.85;2.80;;;;;;;9.61;79.26;99271.38;7390335;19;20018;-65
2023/10/20 02:42:52;;;;;;;4.30;3.00;;;;;;;9.61;79.17;99270.53;7392546;19;20022;-65
2023/10/20 02:45:20;;;;;;;4.20;2.58;;;;;;;9.60;79.15;99268.88;7390854;19;20026;-66
2023/10/20 02:47:50;;;;;;;3.83;2.63;;;;;;;9.64;79.05;99275.53;7392603;19;20011;-66
2023/10/20 02:50:18;;;;;;;3.65;2.60;;;;;;;9.61;79.51;99265.25;7390940;19;20022;-65
2023/10/20 02:52:46;;;;;;;3.67;2.47;;;;;;;9.64;78.98;99257.88;7392193;19;20023;-65
2023/10/20 02:55:13;;;;;;;4.20;2.90;;;;;;;9.63;79.12;99258.84;7392543;19;20018;-60
2023/10/20 02:57:41;;;;;;;3.28;2.33;;;;;;;9.68;78.88;99253.97;7391739;19;20035;-61
2023/10/20 03:00:17;;;;;;;4.38;2.55;;;;;;;9.71;78.93;99260.78;7391201;19;20491;-60
2023/10/20 03:02:48;;;;;;;3.85;2.70;;;;;;;9.66;79.01;99263.88;7390525;19;20021;-62
2023/10/20 03:05:16;;;;;;;3.13;2.33;;;;;;;9.69;78.84;99268.00;7392101;19;20043;-60
2023/10/20 03:07:44;;;;;;;3.42;2.22;;;;;;;9.66;78.77;99266.50;7391498;19;20038;-67
2023/10/20 03:10:12;;;;;;;3.83;2.40;;;;;;;9.68;78.78;99251.31;7390874;19;20022;-65
2023/10/20 03:12:40;;;;;;;5.03;2.72;;;;;;;9.68;78.65;99247.84;7390208;19;20010;-67
2023/10/20 03:15:11;;;;;;;5.28;2.50;;;;;;;9.70;78.55;99253.84;7391573;19;20035;-69
2023/10/20 03:17:38;;;;;;;3.15;2.20;;;;;;;9.67;78.68;99254.94;7391022;19;20711;-69
2023/10/20 03:20:14;;;;;;;3.45;2.28;;;;;;;9.70;78.60;99254.66;7390713;19;20356;-69
2023/10/20 03:22:42;;;;;;;4.25;2.45;;;;;;;9.66;78.53;99245.34;7390163;19;20011;-63
2023/10/20 03:25:11;;;;;;;3.13;2.30;;;;;;;9.68;78.26;99235.47;7391270;19;20019;-65
2023/10/20 03:27:39;;;;;;;2.95;2.25;;;;;;;9.69;78.42;99241.56;7390923;19;20495;-65
2023/10/20 03:30:07;;;;;;;2.45;1.90;;;;;;;9.67;78.17;99228.50;7388403;19;20365;-66
2023/10/20 03:32:35;;;;;;;2.90;2.20;;;;;;;9.67;78.35;99231.16;7385365;19;20010;-66
2023/10/20 03:35:03;;;;;;;4.22;2.38;;;;;;;9.65;78.27;99229.63;7391305;19;20039;-65
2023/10/20 03:37:31;;;;;;;2.88;1.92;;;;;;;9.67;78.34;99225.88;7390821;19;20054;-65
2023/10/20 03:39:58;;;;;;;3.42;2.00;;;;;;;9.64;78.53;99212.13;7388361;19;20014;-65
2023/10/20 03:42:27;;;;;;;3.05;1.98;;;;;;;9.65;78.45;99205.84;7389277;19;20499;-65
2023/10/20 03:44:55;;;;;;;3.20;1.98;;;;;;;9.65;78.26;99209.31;7390986;19;20101;-65
2023/10/20 03:47:27;;;;;;;2.85;1.70;;;;;;;9.66;77.98;99223.38;7391082;19;20023;-65
2023/10/20 03:49:57;;;;;;;2.80;1.73;;;;;;;9.67;78.09;99217.13;7388906;19;20352;-65
2023/10/20 03:52:28;;;;;;;3.42;1.98;;;;;;;9.64;78.05;99210.31;7397883;19;20288;-65
2023/10/20 03:54:56;;;;;;;2.45;1.70;;;;;;;9.64;78.41;99198.91;7396550;19;20014;-66
2023/10/20 03:57:23;;;;;;;3.17;1.90;;;;;;;9.64;78.31;99191.81;7397928;19;20011;-66
2023/10/20 03:59:51;;;;;;;3.45;1.80;;;;;;;9.70;77.92;99193.03;7394855;19;20014;-66
2023/10/20 04:02:18;;;;;;;4.00;2.00;;;;;;;9.72;78.14;99193.72;7397200;19;20347;-66
2023/10/20 04:04:46;;;;;;;2.75;1.85;;;;;;;9.75;77.97;99185.50;7397765;19;20517;-66
2023/10/20 04:07:15;;;;;;;3.75;2.00;;;;;;;9.72;77.91;99183.97;7393976;19;20373;-66
2023/10/20 04:09:43;;;;;;;2.28;1.60;;;;;;;9.69;78.11;99181.63;7394196;19;20018;-66
2023/10/20 04:12:11;;;;;;;2.45;1.60;;;;;;;9.71;77.55;99177.03;7398255;19;20078;-66
2023/10/20 04:14:38;;;;;;;2.33;1.60;;;;;;;9.66;77.83;99170.53;7398539;19;20009;-66
2023/10/20 04:17:06;;;;;;;3.38;1.80;;;;;;;9.64;77.96;99162.72;7396397;19;20019;-66
2023/10/20 04:19:34;;;;;;;2.25;1.52;;;;;;;9.67;77.83;99153.69;7390324;19;20010;-66
2023/10/20 04:22:04;;;;;;;2.38;1.55;;;;;;;9.69;77.61;99155.22;7393513;19;20038;-66
2023/10/20 04:24:31;;;;;;;1.88;1.40;;;;;;;9.69;77.95;99162.28;7393095;19;20026;-66
2023/10/20 04:26:59;;;;;;;3.80;1.40;;;;;;;9.70;77.81;99148.94;7398130;19;20081;-66
2023/10/20 04:29:35;;;;;;;1.63;1.30;;;;;;;9.72;77.56;99152.25;7394044;19;20096;-67
2023/10/20 04:48:40;;;;;;;1.83;1.10;;;;;;;9.73;77.57;99109.00;7394704;19;20051;-66
2023/10/20 04:51:09;;;;;;;1.85;1.00;;;;;;;9.76;77.20;99111.31;7394175;19;20018;-67
2023/10/20 05:01:24;;;;;;;2.13;1.00;;;;;;;9.68;77.21;99086.63;7392579;19;20018;-66
2023/10/20 05:04:12;;;;;;;1.48;0.98;;;;;;;9.64;77.75;99085.25;7395737;19;20029;-67
2023/10/20 05:06:54;;;;;;;1.20;0.80;;;;;;;9.61;77.91;99093.47;7395767;19;20018;-67
2023/10/20 05:09:25;;;;;;;1.52;1.00;;;;;;;9.64;77.95;99093.19;7391815;19;20381;-66
2023/10/20 05:11:53;;;;;;;2.58;1.65;;;;;;;9.65;77.77;99094.84;7394662;19;20074;-66
2023/10/20 05:14:21;;;;;;;2.15;0.95;;;;;;;9.60;77.68;99100.56;7393661;19;20029;-66
2023/10/20 05:16:49;;;;;;;1.45;0.80;;;;;;;9.63;77.48;99099.47;7394673;19;20782;-66
2023/10/20 05:19:17;;;;;;;2.20;1.08;;;;;;;9.62;77.50;99095.16;7392942;19;20019;-66
2023/10/20 05:21:45;;;;;;;1.10;0.77;;;;;;;9.60;77.81;99090.00;7394349;19;20018;-66
2023/10/20 05:24:12;;;;;;;1.25;0.85;;;;;;;9.57;77.93;99098.22;7395029;19;20352;-66
2023/10/20 05:26:40;;;;;;;1.55;1.00;;;;;;;9.57;77.96;99094.75;7394576;19;20031;-66
2023/10/20 05:29:08;;;;;;;2.47;1.00;;;;;;;9.56;77.95;99079.88;7392157;19;20823;-66
2023/10/20 05:31:35;;;;;;;2.67;1.00;;;;;;;9.57;77.68;99084.19;7394991;19;20074;-66
2023/10/20 05:34:03;;;;;;;1.48;0.80;;;;;;;9.54;77.59;99080.03;7394187;19;20033;-66
2023/10/20 05:36:31;;;;;;;1.30;0.88;;;;;;;9.56;77.50;99066.66;7394009;19;20017;-66
2023/10/20 05:38:58;;;;;;;3.65;1.10;;;;;;;9.53;77.59;99068.63;7391984;19;20035;-66
2023/10/20 05:41:27;;;;;;;3.42;1.23;;;;;;;9.54;77.56;99058.91;7394297;19;20019;-66
2023/10/20 05:43:54;;;;;;;3.67;0.90;;;;;;;9.52;77.45;99071.41;7394939;19;20038;-66
2023/10/20 05:46:22;;;;;;;2.60;1.05;;;;;;;9.49;77.65;99080.47;7392087;19;20093;-67
2023/10/20 05:48:49;;;;;;;2.35;1.05;;;;;;;9.50;77.76;99086.56;7393242;19;20377;-67
2023/10/20 05:51:17;;;;;;;2.30;1.10;;;;;;;9.51;77.51;99086.44;7392368;19;20022;-66
2023/10/20 05:53:45;;;;;;;2.17;1.10;;;;;;;9.51;77.60;99094.38;7393487;19;20022;-66
2023/10/20 05:56:12;;;;;;;2.15;1.20;;;;;;;9.49;77.39;99092.84;7394176;19;20011;-66
2023/10/20 05:58:40;;;;;;;3.67;1.33;;;;;;;9.51;77.46;99094.38;7392822;19;20030;-67
2023/10/20 06:01:11;;;;;;;3.13;1.08;;;;;;;9.50;77.31;99094.50;7392536;19;20026;-66
2023/10/20 06:03:39;;;;;;;2.13;1.27;;;;;;;9.49;77.39;99085.75;7391908;19;20038;-66
2023/10/20 06:06:06;;;;;;;2.92;1.17;;;;;;;9.46;77.42;99087.84;7392995;19;20015;-66
2023/10/20 06:08:34;;;;;;;3.85;1.30;;;;;;;9.45;77.24;99087.03;7392359;19;20077;-66
2023/10/20 06:11:04;;;;;;;2.88;1.23;;;;;;;9.42;77.20;99082.03;7390283;19;20022;-66
2023/10/20 06:13:34;;;;;;;3.08;1.10;;;;;;;9.39;77.02;99078.88;7391685;19;20018;-66
2023/10/20 06:16:08;;;;;;;2.45;1.40;;;;;;;9.37;77.23;99071.06;7391627;19;20018;-66
2023/10/20 06:18:39;;;;;;;2.70;1.50;;;;;;;9.35;77.17;99062.47;7391327;19;20337;-66
2023/10/20 06:21:14;;;;;;;2.88;1.50;;;;;;;9.42;76.95;99054.78;7392158;19;20023;-66
2023/10/20 06:23:42;;;;;;;4.00;1.38;;;;;;;9.33;77.12;99045.94;7394758;19;20042;-65
2023/10/20 06:26:10;;;;;;;3.10;1.60;;;;;;;9.31;76.99;99060.25;7391216;19;20737;-65
2023/10/20 06:28:38;;;;;;;3.15;1.33;;;;;;;9.28;76.70;99064.88;7390250;19;20586;-65
2023/10/20 06:31:27;;;;;;;2.55;1.40;;;;;;;9.26;76.89;99052.78;7391985;19;20017;-65
2023/10/20 06:34:00;;;;;;;2.90;1.50;;;;;;;9.26;77.18;99050.13;7392912;19;20026;-65
2023/10/20 06:36:28;;;;;;;3.58;1.70;;;;;;;9.32;77.34;99051.38;7390566;19;20022;-66
2023/10/20 06:38:57;;;;;;;3.20;1.55;;;;;;;9.28;77.00;99041.09;7390483;19;20026;-66
2023/10/20 06:41:25;;;;;;;3.03;1.70;;;;;;;9.24;77.09;99034.44;7390834;19;20023;-66
2023/10/20 06:43:56;;;;;;;2.95;1.50;;;;;;;9.23;77.42;99034.56;7390811;19;20010;-65
2023/10/20 06:46:24;;;;;;;2.70;1.52;;;;;;;9.26;77.32;99027.19;7390401;19;20039;-66
2023/10/20 06:48:51;;;;;;;4.28;1.67;;;;;;;9.24;77.47;99021.25;7391031;19;20031;-66
2023/10/20 06:51:19;;;;;;;2.75;1.65;;;;;;;9.21;77.61;99026.81;7391738;19;20022;-66
2023/10/20 06:53:47;;;;;;;3.67;1.80;;;;;;;9.19;77.25;99026.13;7391348;19;20431;-66
2023/10/20 06:56:15;;;;;;;2.45;1.50;;;;;;;9.25;76.92;99038.75;7391993;19;20119;-66
2023/10/20 06:58:47;;;;;;;3.40;1.90;;;;;;;9.20;76.89;99041.00;7391030;19;20102;-66
2023/10/20 07:01:15;;;;;;;3.50;1.70;;;;;;;9.17;76.72;99028.09;7391615;19;20022;-66
2023/10/20 07:03:43;;;;;;;3.83;1.60;;;;;;;9.19;76.72;99027.94;7390491;19;20038;-65
2023/10/20 07:06:11;;;;;;;3.35;1.60;;;;;;;9.18;76.49;99026.28;7391496;19;20021;-65
2023/10/20 07:08:39;;;;;;;3.03;1.70;;;;;;;9.16;76.86;99028.25;7388805;19;20104;-67
2023/10/20 07:11:07;;;;;;;2.90;1.40;;;;;;;9.19;76.45;99028.75;7390223;19;20019;-66
2023/10/20 07:13:34;;;;;;;2.90;1.45;;;;;;;9.15;76.37;99024.75;7391626;19;20043;-65
2023/10/20 07:16:02;;;;;;;2.63;1.58;;;;;;;9.14;76.71;99014.34;7391265;19;20043;-66
2023/10/20 07:18:30;;;;;;;3.20;1.75;;;;;;;9.17;76.50;99016.69;7388759;19;20022;-66
2023/10/20 07:20:58;;;;;;;2.90;1.70;;;;;;;9.12;76.41;99025.06;7389860;19;20055;-65
2023/10/20 07:23:25;;;;;;;3.33;1.70;;;;;;;9.16;76.10;99022.97;7390157;19;20018;-66
2023/10/20 07:25:53;;;;;;;2.33;1.38;;;;;;;9.15;75.98;99029.19;7396205;19;20085;-65
2023/10/20 07:28:21;;;;;;;4.50;1.60;;;;;;;9.17;76.12;99024.63;7397774;19;20026;-65
2023/10/20 07:30:50;;;;;;;5.38;1.80;;;;;;;9.18;76.03;99018.34;7397973;19;20037;-66
2023/10/20 07:33:18;;;;;;;3.83;2.05;;;;;;;9.10;76.26;99012.97;7398867;19;20343;-65
2023/10/20 07:35:46;;;;;;;2.15;1.55;;;;;;;9.13;75.91;99013.53;7398354;19;20373;-65
2023/10/20 07:38:13;;;;;;;5.35;1.65;;;;;;;9.10;76.26;99002.41;7398267;19;20019;-65
2023/10/20 07:40:41;;;;;;;3.67;1.50;;;;;;;9.14;76.18;99014.34;7397717;19;20018;-65
2023/10/20 07:43:10;;;;;;;3.92;1.70;;;;;;;9.12;76.08;99003.94;7396983;19;20042;-65
2023/10/20 07:45:42;;;;;;;4.07;1.90;;;;;;;9.14;75.91;99012.53;7397302;19;20014;-66
2023/10/20 07:48:10;;;;;;;4.03;1.60;;;;;;;9.14;75.82;98993.22;7397279;19;20471;-66
2023/10/20 07:50:38;;;;;;;2.72;1.63;;;;;;;9.13;76.11;99007.41;7396506;19;20021;-66
2023/10/20 07:53:09;;;;;;;4.18;1.80;;;;;;;9.13;76.10;99004.78;7396588;19;20053;-67
2023/10/20 07:55:37;;;;;;;3.83;2.00;;;;;;;9.05;76.23;99008.13;7398153;19;20039;-66
2023/10/20 07:58:08;;;;;;;3.50;1.75;;;;;;;9.06;76.48;98995.78;7397173;19;20035;-66
2023/10/20 08:00:36;;;;;;;3.00;1.70;;;;;;;9.00;76.44;98998.03;7396632;19;20027;-66
2023/10/20 08:03:05;;;;;;;2.10;1.60;;;;;;;9.08;76.04;98985.88;7395056;19;20022;-66
2023/10/20 08:05:35;;;;;;;2.40;1.40;;;;;;;9.07;76.34;99000.06;7397860;19;20018;-66
2023/10/20 08:08:04;;;;;;;3.40;1.60;;;;;;;9.04;76.41;98993.25;7396401;19;20018;-67
2023/10/20 08:10:35;;;;;;;3.28;1.80;;;;;;;9.06;76.38;98995.78;7394337;19;20098;-66
2023/10/20 08:13:02;;;;;;;2.90;1.48;;;;;;;9.01;77.00;98975.09;7397869;19;20043;-66
2023/10/20 08:15:35;;;;;;;2.92;1.55;;;;;;;8.96;76.82;98979.97;7396842;19;20033;-66
2023/10/20 08:18:03;;;;;;;2.80;1.67;;;;;;;8.90;76.98;98978.75;7396870;19;20022;-66
2023/10/20 08:20:31;;;;;;;5.95;2.00;;;;;;;8.91;77.23;98985.69;7395628;19;20025;-66
2023/10/20 08:23:00;;;;;;;4.55;1.58;;;;;;;8.94;76.93;98981.94;7395777;19;20460;-66
2023/10/20 08:25:28;;;;;;;4.57;1.65;;;;;;;8.99;77.22;98990.22;7395828;19;20014;-66
2023/10/20 08:27:55;;;;;;;3.70;1.77;;;;;;;8.87;77.34;98981.69;7396419;19;20102;-66
2023/10/20 08:30:23;;;;;;;2.63;1.60;;;;;;;8.84;77.62;98975.84;7395589;19;20019;-66
2023/10/20 08:32:50;;;;;;;2.47;1.70;;;;;;;8.85;77.60;98967.78;7394823;19;20027;-65
2023/10/20 08:35:18;;;;;;;4.25;1.85;;;;;;;8.81;77.86;98962.94;7396556;19;20021;-66
2023/10/20 08:37:46;;;;;;;5.10;1.88;;;;;;;8.82;78.18;98946.97;7392162;19;20336;-65
2023/10/20 08:40:15;;;;;;;3.60;1.75;;;;;;;8.86;78.13;98942.25;7394124;19;20018;-66
2023/10/20 08:42:43;;;;;;;2.80;1.65;;;;;;;8.88;78.24;98938.47;7396497;19;20082;-66
2023/10/20 08:45:14;;;;;;;3.38;1.33;;;;;;;8.83;78.15;98930.16;7397377;19;20027;-65
2023/10/20 08:47:42;;;;;;;2.47;1.50;;;;;;;8.85;78.52;98946.66;7396961;19;20022;-65
2023/10/20 08:50:13;;;;;;;3.58;1.63;;;;;;;8.84;78.81;98938.91;7395009;19;20011;-65
2023/10/20 08:52:44;;;;;;;4.15;1.80;;;;;;;8.83;78.98;98945.16;7396057;19;20015;-65
2023/10/20 08:55:13;;;;;;;2.47;1.33;;;;;;;8.75;79.13;98935.34;7397197;19;20347;-65
2023/10/20 08:57:41;;;;;;;2.33;1.10;;;;;;;8.73;78.92;98947.84;7395581;19;20018;-65
2023/10/20 09:00:19;;;;;;;2.53;1.10;;;;;;;8.74;78.83;98944.25;7394414;19;20413;-65
2023/10/20 09:02:48;;;;;;;2.03;1.10;;;;;;;8.72;79.29;98943.56;7395291;19;20021;-65
2023/10/20 09:05:22;;;;;;;3.95;1.40;;;;;;;8.72;79.13;98943.56;7394347;19;20039;-66
2023/10/20 09:07:55;;;;;;;2.30;1.20;;;;;;;8.71;79.10;98949.81;7395688;19;20074;-66
2023/10/20 09:10:24;;;;;;;2.55;1.30;;;;;;;8.71;79.15;98949.81;7392485;19;20015;-66
2023/10/20 09:12:51;;;;;;;1.42;0.90;;;;;;;8.70;79.04;98951.63;7395339;19;20025;-66
2023/10/20 09:15:19;;;;;;;2.28;1.35;;;;;;;8.70;78.96;98951.63;7395561;19;20011;-66
2023/10/20 09:17:54;;;;;;;2.47;1.20;;;;;;;8.74;78.69;98944.25;7394806;19;20022;-66
2023/10/20 09:20:23;;;;;;;2.63;1.30;;;;;;;8.70;78.94;98927.88;7393480;19;20042;-66
2023/10/20 09:22:51;;;;;;;2.38;1.20;;;;;;;8.75;79.06;98944.09;7394560;19;20026;-66
2023/10/20 09:25:19;;;;;;;2.58;1.00;;;;;;;8.73;78.77;98930.19;7394687;19;20015;-66
2023/10/20 09:27:48;;;;;;;1.77;1.20;;;;;;;8.68;79.10;98945.66;7394888;19;20030;-65
2023/10/20 09:30:16;;;;;;;2.28;1.10;;;;;;;8.70;78.88;98942.84;7393238;19;20014;-65
2023/10/20 09:32:44;;;;;;;1.85;1.13;;;;;;;8.74;79.05;98938.97;7394925;19;20021;-65
2023/10/20 09:35:12;;;;;;;2.25;1.15;;;;;;;8.67;79.05;98948.44;7394684;19;20019;-65
2023/10/20 09:37:41;;;;;;;2.00;1.20;;;;;;;8.68;78.90;98950.94;7394279;19;20022;-65
2023/10/20 09:40:10;;;;;;;2.63;1.20;;;;;;;8.73;78.92;98942.56;7392956;19;20021;-66
2023/10/20 09:43:05;;;;;;;2.90;1.20;;;;;;;8.72;78.66;98943.56;7394346;19;20014;-66
2023/10/20 09:45:52;;;;;;;2.25;1.23;;;;;;;8.69;79.09;98949.13;7392110;19;20089;-66
2023/10/20 09:48:19;;;;;;;1.95;1.20;;;;;;;8.75;78.63;98953.81;7392596;19;20081;-66
2023/10/20 09:50:49;;;;;;;2.20;1.10;;;;;;;8.74;78.70;98936.34;7393056;19;20535;-66
2023/10/20 09:53:19;;;;;;;3.20;1.35;;;;;;;8.67;78.72;98943.16;7393929;19;20023;-66
2023/10/20 09:55:47;;;;;;;2.10;1.20;;;;;;;8.75;78.65;98941.44;7393372;19;20033;-66
2023/10/20 09:58:33;;;;;;;2.35;1.42;;;;;;;8.78;78.31;98941.16;7392352;19;20018;-66
2023/10/20 10:01:03;;;;;;;2.67;1.40;;;;;;;8.72;78.73;98943.56;7389902;19;20043;-66
2023/10/20 10:03:40;;;;;;;2.25;1.17;;;;;;;8.72;78.66;98943.56;7392209;19;20014;-66
2023/10/20 10:06:10;;;;;;;3.00;1.27;;;;;;;8.69;78.72;98949.94;7393493;19;20025;-66
2023/10/20 10:08:39;;;;;;;3.00;1.50;;;;;;;8.66;78.93;98952.03;7392665;19;20025;-66
2023/10/20 10:11:21;;;;;;;2.20;1.33;;;;;;;8.70;79.02;98953.41;7391518;19;20331;-66
2023/10/20 10:13:57;;;;;;;2.00;1.40;;;;;;;8.68;79.09;98944.81;7393434;19;20043;-66
2023/10/20 10:16:25;;;;;;;3.65;1.40;;;;;;;8.70;78.73;98940.22;7393081;19;20024;-66
2023/10/20 10:18:56;;;;;;;2.90;1.30;;;;;;;8.63;78.68;98939.16;7392279;19;20384;-66
2023/10/20 10:21:26;;;;;;;2.20;1.20;;;;;;;8.68;78.79;98948.28;7392342;19;20015;-66
2023/10/20 10:24:07;;;;;;;3.13;1.58;;;;;;;8.71;78.81;98937.44;7392109;19;20011;-66
2023/10/20 10:26:50;;;;;;;2.40;1.25;;;;;;;8.58;79.22;98939.56;7392406;19;20410;-66
2023/10/20 10:29:39;;;;;;;2.88;1.52;;;;;;;8.54;79.54;98936.38;7388795;19;20052;-66
2023/10/20 10:32:13;;;;;;;2.83;1.60;;;;;;;8.62;79.47;98935.66;7391608;19;20023;-65
2023/10/20 10:34:42;;;;;;;2.63;1.30;;;;;;;8.61;79.31;98938.47;7392767;19;20018;-65
2023/10/20 10:37:10;;;;;;;4.38;1.60;;;;;;;8.62;79.20;98934.84;7392069;19;20512;-66
2023/10/20 10:39:38;;;;;;;3.05;1.50;;;;;;;8.66;79.40;98937.06;7389599;19;20026;-66
2023/10/20 10:42:06;;;;;;;2.25;1.42;;;;;;;8.67;79.19;98933.44;7392653;19;20100;-66
2023/10/20 10:44:37;;;;;;;2.08;1.30;;;;;;;8.58;79.15;98936.09;7388318;19;20023;-66
2023/10/20 10:47:20;;;;;;;3.25;1.90;;;;;;;8.63;79.26;98933.88;7392354;19;20010;-65
2023/10/20 10:49:49;;;;;;;2.92;1.70;;;;;;;8.57;79.96;98926.53;7389207;19;20381;-64
2023/10/20 10:52:17;;;;;;;3.58;2.00;;;;;;;8.67;79.44;98933.44;7391923;19;20023;-64
2023/10/20 10:54:44;;;;;;;4.03;1.60;;;;;;;8.66;79.45;98926.50;7391340;19;20495;-65
2023/10/20 10:57:13;;;;;;;2.97;1.55;;;;;;;8.64;79.67;98924.97;7391911;19;20640;-64
2023/10/20 10:59:41;;;;;;;2.92;1.80;;;;;;;8.68;79.66;98916.63;7387058;19;20019;-63
2023/10/20 11:02:08;;;;;;;3.08;1.75;;;;;;;8.64;79.62;98902.06;7391777;19;20081;-63
2023/10/20 11:04:36;;;;;;;3.22;1.60;;;;;;;8.61;79.94;98896.25;7390578;19;20379;-64
2023/10/20 11:07:04;;;;;;;2.70;1.50;;;;;;;8.63;79.67;98889.84;7392266;19;20019;-64
2023/10/20 11:09:33;;;;;;;3.70;1.80;;;;;;;8.64;79.83;98875.69;7389115;19;20436;-64
2023/10/20 11:12:01;;;;;;;4.03;1.60;;;;;;;8.65;79.79;98864.13;7391422;19;20007;-64
2023/10/20 11:14:28;;;;;;;2.13;1.40;;;;;;;8.68;79.27;98855.94;7391224;19;20021;-65
2023/10/20 11:16:56;;;;;;;2.45;1.40;;;;;;;8.67;79.14;98854.28;7389294;19;20011;-66
2023/10/20 11:19:24;;;;;;;2.97;1.58;;;;;;;8.61;79.64;98846.13;7387149;19;20483;-66
2023/10/20 11:21:52;;;;;;;1.90;1.33;;;;;;;8.66;79.80;98839.44;7389992;19;20022;-66
2023/10/20 11:24:34;;;;;;;2.45;1.60;;;;;;;8.73;79.33;98835.19;7394545;19;20090;-66
2023/10/20 11:27:05;;;;;;;1.90;1.33;;;;;;;8.64;79.73;98833.47;7389461;19;20029;-66
2023/10/20 11:29:33;;;;;;;4.15;1.35;;;;;;;8.55;79.76;98837.00;7387314;19;20019;-66
2023/10/20 11:32:20;;;;;;;2.50;1.60;;;;;;;8.53;79.97;98826.56;7390902;19;20018;-66
2023/10/20 11:34:50;;;;;;;2.38;1.40;;;;;;;8.54;79.77;98820.31;7388772;19;20507;-66
2023/10/20 11:37:17;;;;;;;2.40;1.20;;;;;;;8.58;79.85;98838.50;7389100;19;20047;-67
2023/10/20 11:39:45;;;;;;;3.55;1.40;;;;;;;8.60;79.91;98849.75;7386804;19;20052;-66
2023/10/20 11:42:13;;;;;;;2.17;1.42;;;;;;;8.56;79.67;98840.47;7388928;19;20077;-67
2023/10/20 11:44:41;;;;;;;2.33;1.40;;;;;;;8.56;79.80;98843.94;7387750;19;20435;-65
2023/10/20 11:47:08;;;;;;;2.92;1.60;;;;;;;8.60;79.83;98842.66;7388888;19;20023;-66
2023/10/20 11:49:36;;;;;;;5.43;1.52;;;;;;;8.61;80.04;98851.41;7386536;19;20090;-66
2023/10/20 11:52:07;;;;;;;3.78;1.45;;;;;;;8.66;79.59;98844.72;7388272;19;20018;-66
2023/10/20 11:54:36;;;;;;;3.17;1.40;;;;;;;8.60;79.69;98832.09;7388740;19;20393;-67
2023/10/20 11:57:03;;;;;;;2.70;1.50;;;;;;;8.57;80.27;98826.28;7390442;19;20018;-66
2023/10/20 11:59:33;;;;;;;3.40;1.65;;;;;;;8.60;80.38;98826.00;7385700;19;20018;-67
2023/10/20 12:02:00;;;;;;;3.13;1.60;;;;;;;8.65;80.19;98821.09;7388667;19;20480;-67
2023/10/20 12:04:29;;;;;;;2.53;1.30;;;;;;;8.60;80.04;98813.63;7388915;19;20010;-66
2023/10/20 12:06:58;;;;;;;1.98;1.20;;;;;;;8.57;80.25;98813.91;7390339;19;20108;-66
2023/10/20 12:09:26;;;;;;;3.47;1.33;;;;;;;8.61;80.00;98799.44;7385292;19;20010;-66
2023/10/20 12:11:54;;;;;;;1.98;1.20;;;;;;;8.59;80.16;98804.06;7392528;19;20014;-66
2023/10/20 12:14:22;;;;;;;2.42;1.30;;;;;;;8.68;80.04;98786.50;7395823;19;20371;-66
2023/10/20 12:16:51;;;;;;;2.40;1.30;;;;;;;8.63;79.71;98788.78;7397520;19;20429;-65